createdAt,value
2023-04-19T00:00:40.207Z,7.91
2023-04-19T00:04:44.924Z,7.83
2023-04-19T00:08:46.434Z,7.95
2023-04-19T00:12:47.828Z,7.79
2023-04-19T00:16:49.250Z,7.73
2023-04-19T00:20:52.016Z,7.79
2023-04-19T00:24:53.781Z,7.68
2023-04-19T00:28:55.141Z,7.65
2023-04-19T00:32:56.522Z,7.69
2023-04-19T00:36:59.234Z,7.60
2023-04-19T00:41:00.619Z,7.72
2023-04-19T00:45:02.099Z,7.73
2023-04-19T00:49:03.480Z,7.80
2023-04-19T00:53:06.488Z,7.90
2023-04-19T00:57:07.822Z,7.93
2023-04-19T01:01:09.193Z,7.90
2023-04-19T01:05:10.559Z,7.91
2023-04-19T01:09:13.305Z,7.83
2023-04-19T01:13:14.671Z,7.82
2023-04-19T01:17:16.171Z,7.81
2023-04-19T01:21:17.532Z,7.69
2023-04-19T01:25:20.268Z,7.77
2023-04-19T01:29:21.634Z,7.42
2023-04-19T01:33:23.011Z,7.28
2023-04-19T01:37:24.360Z,7.12
2023-04-19T01:41:27.317Z,7.21
2023-04-19T01:45:28.788Z,7.28
2023-04-19T01:49:30.159Z,7.37
2023-04-19T01:53:31.500Z,7.12
2023-04-19T01:57:34.226Z,7.09
2023-04-19T02:01:35.586Z,7.12
2023-04-19T02:05:38.666Z,7.18
2023-04-19T02:09:40.062Z,7.13
2023-04-19T02:13:43.062Z,6.98
2023-04-19T02:17:44.524Z,6.71
2023-04-19T02:21:45.878Z,6.62
2023-04-19T02:25:47.225Z,6.59
2023-04-19T02:29:49.979Z,6.38
2023-04-19T02:33:51.371Z,6.34
2023-04-19T02:37:52.749Z,6.25
2023-04-19T02:41:54.085Z,6.14
2023-04-19T02:45:56.891Z,6.04
2023-04-19T02:49:59.520Z,5.95
2023-04-19T02:54:00.865Z,5.76
2023-04-19T02:58:02.213Z,5.77
2023-04-19T03:02:05.032Z,5.78
2023-04-19T03:06:06.686Z,5.66
2023-04-19T03:10:08.656Z,5.57
2023-04-19T03:14:10.041Z,5.49
2023-04-19T03:18:12.743Z,5.48
2023-04-19T03:22:14.084Z,5.58
2023-04-19T03:26:15.438Z,5.39
2023-04-19T03:30:16.920Z,5.41
2023-04-19T03:34:19.697Z,5.28
2023-04-19T03:38:21.049Z,5.25
2023-04-19T03:42:22.453Z,5.34
2023-04-19T03:46:23.961Z,5.44
2023-04-19T03:50:26.755Z,5.38
2023-04-19T03:54:28.140Z,5.34
2023-04-19T03:58:29.487Z,5.33
2023-04-19T04:02:31.009Z,5.32
2023-04-19T04:06:33.838Z,5.46
2023-04-19T04:10:35.228Z,5.29
2023-04-19T04:14:36.580Z,5.37
2023-04-19T04:18:37.922Z,5.35
2023-04-19T04:22:42.277Z,5.29
2023-04-19T04:26:43.644Z,5.22
2023-04-19T04:30:45.174Z,5.26
2023-04-19T04:34:46.573Z,5.24
2023-04-19T04:38:49.452Z,5.21
2023-04-19T04:42:50.869Z,5.23
2023-04-19T04:46:52.215Z,5.18
2023-04-19T04:50:53.560Z,5.14
2023-04-19T04:54:56.284Z,5.29
2023-04-19T04:58:57.618Z,5.32
2023-04-19T05:02:59.711Z,5.33
2023-04-19T05:07:01.129Z,5.41
2023-04-19T05:11:03.896Z,5.51
2023-04-19T05:15:05.818Z,5.85
2023-04-19T05:19:07.192Z,5.81
2023-04-19T05:23:08.521Z,6.05
2023-04-19T05:27:11.283Z,6.23
2023-04-19T05:31:12.872Z,6.48
2023-04-19T05:35:14.316Z,6.59
2023-04-19T05:39:15.732Z,6.53
2023-04-19T05:43:18.529Z,6.70
2023-04-19T05:47:19.982Z,6.82
2023-04-19T05:51:21.404Z,6.91
2023-04-19T05:55:22.881Z,6.99
2023-04-19T05:59:25.588Z,7.16
2023-04-19T06:03:29.069Z,7.28
2023-04-19T06:07:36.066Z,7.30
2023-04-19T06:11:49.965Z,7.42
2023-04-19T06:15:53.848Z,7.52
2023-04-19T06:19:55.262Z,7.55
2023-04-19T06:23:56.624Z,7.70
2023-04-19T06:27:58.065Z,7.75
2023-04-19T06:32:00.824Z,7.84
2023-04-19T06:36:02.203Z,7.91
2023-04-19T06:40:03.906Z,7.91
2023-04-19T06:44:05.515Z,7.97
2023-04-19T06:48:08.314Z,8.09
2023-04-19T06:52:09.681Z,8.09
2023-04-19T06:56:11.047Z,8.32
2023-04-19T07:00:13.028Z,8.37
2023-04-19T07:04:16.148Z,8.39
2023-04-19T07:08:18.072Z,8.49
2023-04-19T07:12:19.636Z,8.56
2023-04-19T07:16:21.082Z,8.65
2023-04-19T07:20:24.012Z,8.74
2023-04-19T07:24:25.407Z,8.82
2023-04-19T07:28:28.490Z,8.78
2023-04-19T07:32:30.714Z,8.91
2023-04-19T07:36:33.460Z,8.93
2023-04-19T07:40:34.801Z,8.94
2023-04-19T07:44:36.404Z,9.01
2023-04-19T07:48:37.901Z,9.07
2023-04-19T07:52:40.647Z,9.20
2023-04-19T07:56:42.014Z,9.36
2023-04-19T08:00:43.405Z,9.49
2023-04-19T08:04:45.179Z,9.65
2023-04-19T08:08:49.722Z,9.67
2023-04-19T08:13:05.005Z,9.72
2023-04-19T08:17:24.314Z,9.71
2023-04-19T08:21:34.612Z,9.80
2023-04-19T08:25:43.653Z,9.83
2023-04-19T08:29:45.088Z,9.88
2023-04-19T08:33:46.895Z,10.04
2023-04-19T08:37:48.304Z,10.14
2023-04-19T08:42:02.569Z,10.28
2023-04-19T08:46:07.716Z,10.39
2023-04-19T08:50:24.180Z,10.39
2023-04-19T08:54:30.185Z,10.43
2023-04-19T09:02:47.667Z,9.95
2023-04-19T09:06:49.361Z,10.01
2023-04-19T09:10:54.261Z,10.01
2023-04-19T09:19:15.360Z,9.79
2023-04-19T09:23:23.158Z,9.74
2023-04-19T09:27:28.170Z,9.68
2023-04-19T09:31:47.826Z,9.57
2023-04-19T09:35:51.785Z,9.64
2023-04-19T09:39:53.258Z,9.62
2023-04-19T09:48:16.934Z,9.34
2023-04-19T09:52:18.299Z,9.15
2023-04-19T09:56:19.640Z,9.05
2023-04-19T10:00:22.180Z,9.00
2023-04-19T10:04:38.484Z,8.95
2023-04-19T10:08:48.992Z,8.88
2023-04-19T10:16:57.064Z,9.01
2023-04-19T10:21:01.498Z,9.00
2023-04-19T10:25:09.407Z,8.93
2023-04-19T10:29:12.333Z,8.83
2023-04-19T10:33:24.056Z,8.89
2023-04-19T10:37:26.773Z,8.73
2023-04-19T10:41:48.324Z,8.58
2023-04-19T10:45:49.942Z,8.60
2023-04-19T10:49:51.368Z,8.53
2023-04-19T10:53:55.117Z,8.35
2023-04-19T10:58:03.418Z,8.24
2023-04-19T11:02:05.809Z,8.24
2023-04-19T11:06:16.868Z,8.21
2023-04-19T11:10:29.470Z,8.11
2023-04-19T11:14:31.813Z,8.21
2023-04-19T11:18:33.212Z,8.26
2023-04-19T11:22:35.625Z,8.27
2023-04-19T11:26:38.444Z,8.28
2023-04-19T11:30:39.891Z,8.73
2023-04-19T11:34:41.367Z,9.11
2023-04-19T11:38:46.241Z,9.84
2023-04-19T11:42:55.305Z,10.55
2023-04-19T11:47:00.582Z,11.65
2023-04-19T11:51:02.234Z,12.17
2023-04-19T11:55:17.847Z,12.04
2023-04-19T11:59:20.682Z,11.63
2023-04-19T12:03:25.516Z,11.62
2023-04-19T12:07:27.705Z,11.58
2023-04-19T12:11:42.082Z,11.81
2023-04-19T12:15:45.326Z,11.78
2023-04-19T12:19:47.405Z,12.31
2023-04-19T12:23:48.792Z,12.72
2023-04-19T12:27:50.120Z,12.70
2023-04-19T12:31:52.925Z,12.58
2023-04-19T12:35:54.395Z,12.18
2023-04-19T12:39:56.382Z,12.31
2023-04-19T12:43:57.787Z,12.41
2023-04-19T12:48:00.527Z,12.81
2023-04-19T12:52:01.939Z,13.20
2023-04-19T12:56:03.505Z,13.57
2023-04-19T13:00:06.145Z,13.79
2023-04-19T13:04:09.181Z,13.98
2023-04-19T13:08:10.672Z,14.16
2023-04-19T13:12:12.009Z,13.87
2023-04-19T13:16:13.398Z,12.98
2023-04-19T13:20:16.221Z,12.66
2023-04-19T13:24:17.978Z,12.85
2023-04-19T13:28:19.604Z,13.31
2023-04-19T13:32:21.005Z,13.36
2023-04-19T13:36:23.742Z,13.00
2023-04-19T13:40:25.087Z,12.37
2023-04-19T13:44:26.457Z,12.19
2023-04-19T13:48:27.875Z,12.31
2023-04-19T13:52:30.590Z,12.06
2023-04-19T13:56:31.949Z,11.97
2023-04-19T14:00:33.385Z,11.56
2023-04-19T14:04:34.879Z,11.47
2023-04-19T14:08:37.706Z,11.44
2023-04-19T14:12:39.046Z,11.28
2023-04-19T14:16:40.452Z,11.11
2023-04-19T14:20:41.958Z,11.20
2023-04-19T14:24:44.700Z,11.38
2023-04-19T14:28:46.066Z,11.47
2023-04-19T14:32:47.760Z,11.51
2023-04-19T14:36:51.017Z,11.35
2023-04-19T14:40:54.336Z,11.30
2023-04-19T14:44:55.727Z,11.22
2023-04-19T14:48:57.064Z,11.12
2023-04-19T14:52:58.417Z,11.36
2023-04-19T14:57:01.222Z,11.91
2023-04-19T15:01:10.290Z,12.20
2023-04-19T15:05:11.850Z,12.16
2023-04-19T15:09:13.324Z,11.90
2023-04-19T15:13:16.068Z,11.71
2023-04-19T15:17:17.479Z,11.39
2023-04-19T15:21:19.060Z,11.23
2023-04-19T15:25:20.465Z,11.01
2023-04-19T15:29:23.182Z,11.09
2023-04-19T15:33:24.580Z,10.85
2023-04-19T15:37:25.963Z,10.71
2023-04-19T15:41:27.810Z,10.58
2023-04-19T15:45:30.596Z,10.42
2023-04-19T15:49:31.951Z,10.45
2023-04-19T15:53:33.296Z,10.32
2023-04-19T15:57:34.674Z,10.18
2023-04-19T16:01:37.457Z,10.32
2023-04-19T16:05:38.853Z,10.44
2023-04-19T16:09:40.193Z,10.51
2023-04-19T16:13:41.718Z,10.60
2023-04-19T16:17:44.490Z,10.47
2023-04-19T16:21:45.918Z,10.48
2023-04-19T16:25:47.416Z,10.49
2023-04-19T16:29:48.753Z,10.46
2023-04-19T16:33:51.634Z,10.16
2023-04-19T16:37:55.200Z,10.49
2023-04-19T16:41:58.136Z,10.69
2023-04-19T16:45:59.595Z,10.90
2023-04-19T16:50:02.543Z,11.10
2023-04-19T16:54:04.022Z,10.91
2023-04-19T16:58:05.362Z,10.92
2023-04-19T17:02:06.861Z,10.62
2023-04-19T17:06:09.713Z,10.23
2023-04-19T17:10:11.605Z,10.06
2023-04-19T17:14:12.980Z,10.06
2023-04-19T17:18:14.446Z,10.21
2023-04-19T17:22:17.306Z,10.21
2023-04-19T17:26:18.690Z,10.18
2023-04-19T17:30:20.096Z,9.88
2023-04-19T17:34:21.477Z,9.49
2023-04-19T17:38:24.211Z,9.35
2023-04-19T17:42:25.684Z,8.77
2023-04-19T17:46:27.254Z,8.50
2023-04-19T17:50:28.666Z,8.41
2023-04-19T17:54:31.394Z,8.06
2023-04-19T17:58:32.778Z,7.89
2023-04-19T18:02:34.450Z,7.84
2023-04-19T18:06:36.223Z,7.61
2023-04-19T18:10:38.954Z,7.52
2023-04-19T18:14:40.342Z,7.24
2023-04-19T18:18:41.729Z,7.11
2023-04-19T18:22:43.550Z,7.10
2023-04-19T18:26:46.301Z,6.98
2023-04-19T18:30:47.849Z,6.94
2023-04-19T18:34:49.208Z,6.65
2023-04-19T18:38:50.617Z,6.66
2023-04-19T18:42:53.474Z,6.52
2023-04-19T18:46:54.868Z,6.22
2023-04-19T18:50:56.709Z,6.13
2023-04-19T18:54:58.080Z,6.07
2023-04-19T18:59:00.865Z,6.16
2023-04-19T19:03:03.901Z,5.98
2023-04-19T19:07:18.203Z,5.81
2023-04-19T19:11:51.920Z,5.45
2023-04-19T19:15:49.596Z,5.38
2023-04-19T19:19:51.055Z,5.18
2023-04-19T19:23:52.578Z,5.22
2023-04-19T19:31:59.629Z,4.88
2023-04-19T19:36:01.649Z,4.76
2023-04-19T19:40:05.351Z,4.74
2023-04-19T19:44:07.479Z,4.71
2023-04-19T19:48:10.267Z,4.64
2023-04-19T19:52:11.760Z,4.64
2023-04-19T19:56:21.476Z,4.47
2023-04-19T20:00:44.081Z,4.32
2023-04-19T20:04:47.405Z,4.45
2023-04-19T20:08:49.014Z,4.29
2023-04-19T20:12:50.506Z,4.23
2023-04-19T20:16:51.989Z,4.05
2023-04-19T20:20:54.726Z,3.98
2023-04-19T20:24:56.077Z,3.91
2023-04-19T20:28:57.496Z,4.00
2023-04-19T20:32:58.946Z,4.08
2023-04-19T20:37:01.734Z,4.06
2023-04-19T20:41:03.138Z,4.24
2023-04-19T20:45:04.798Z,4.13
2023-04-19T20:49:06.169Z,4.10
2023-04-19T20:53:08.911Z,4.13
2023-04-19T20:57:10.289Z,4.14
2023-04-19T21:01:11.771Z,4.05
2023-04-19T21:05:13.201Z,4.19
2023-04-19T21:09:16.210Z,4.29
2023-04-19T21:13:17.701Z,4.20
2023-04-19T21:17:19.126Z,4.11
2023-04-19T21:21:20.481Z,4.06
2023-04-19T21:25:23.240Z,4.00
2023-04-19T21:29:24.612Z,3.96
2023-04-19T21:33:25.964Z,3.94
2023-04-19T21:37:27.448Z,3.95
2023-04-19T21:41:30.182Z,3.98
2023-04-19T21:45:31.526Z,3.84
2023-04-19T21:49:32.967Z,3.79
2023-04-19T21:53:34.375Z,3.70
2023-04-19T21:57:37.106Z,3.51
2023-04-19T22:01:38.452Z,3.50
2023-04-19T22:05:39.839Z,3.43
2023-04-19T22:09:41.186Z,3.38
2023-04-19T22:13:43.969Z,3.21
2023-04-19T22:17:45.386Z,3.18
2023-04-19T22:21:46.777Z,3.04
2023-04-19T22:25:48.138Z,2.95
2023-04-19T22:29:50.873Z,2.76
2023-04-19T22:33:52.223Z,2.61
2023-04-19T22:37:53.579Z,2.58
2023-04-19T22:41:54.935Z,2.45
2023-04-19T22:45:57.699Z,2.49
2023-04-19T22:49:59.086Z,2.68
2023-04-19T22:54:00.719Z,2.51
2023-04-19T22:58:02.069Z,2.37
2023-04-19T23:02:04.841Z,2.37
2023-04-19T23:06:06.482Z,2.19
2023-04-19T23:10:08.541Z,2.18
2023-04-19T23:14:09.921Z,2.15
2023-04-19T23:18:12.627Z,1.98
2023-04-19T23:22:13.983Z,1.87
2023-04-19T23:26:15.402Z,1.85
2023-04-19T23:30:17.292Z,1.74
2023-04-19T23:34:20.031Z,1.67
2023-04-19T23:38:21.433Z,1.61
2023-04-19T23:42:22.799Z,1.65
2023-04-19T23:46:24.186Z,1.54
2023-04-19T23:50:27.038Z,1.36
2023-04-19T23:54:28.363Z,1.34
2023-04-19T23:58:29.737Z,1.41
